sensor_id;sensor_type;location;lat;lon;timestamp;temperature;humidity
8593;DHT22;4334;49.982;8.398;2022-10-15T00:01:12;14.50;99.90
8593;DHT22;4334;49.982;8.398;2022-10-15T00:03:41;14.50;99.90
8593;DHT22;4334;49.982;8.398;2022-10-15T00:06:09;14.60;99.90
8593;DHT22;4334;49.982;8.398;2022-10-15T00:08:37;14.60;99.90
8593;DHT22;4334;49.982;8.398;2022-10-15T00:11:06;14.60;99.90
8593;DHT22;4334;49.982;8.398;2022-10-15T00:13:35;14.50;99.90
8593;DHT22;4334;49.982;8.398;2022-10-15T00:16:02;14.50;99.90
8593;DHT22;4334;49.982;8.398;2022-10-15T00:18:29;14.50;99.90
8593;DHT22;4334;49.982;8.398;2022-10-15T00:20:56;14.60;99.90
8593;DHT22;4334;49.982;8.398;2022-10-15T00:23:23;14.50;99.90
8593;DHT22;4334;49.982;8.398;2022-10-15T00:25:49;16.30;99.90
8593;DHT22;4334;49.982;8.398;2022-10-15T00:28:16;14.50;99.90
8593;DHT22;4334;49.982;8.398;2022-10-15T00:30:44;14.50;99.90
8593;DHT22;4334;49.982;8.398;2022-10-15T00:33:11;14.60;99.90
8593;DHT22;4334;49.982;8.398;2022-10-15T00:35:38;14.60;99.90
8593;DHT22;4334;49.982;8.398;2022-10-15T00:38:05;14.50;99.90
8593;DHT22;4334;49.982;8.398;2022-10-15T00:40:32;14.50;99.90
8593;DHT22;4334;49.982;8.398;2022-10-15T00:42:59;14.50;99.90
8593;DHT22;4334;49.982;8.398;2022-10-15T00:45:26;14.60;99.90
8593;DHT22;4334;49.982;8.398;2022-10-15T00:47:54;14.60;99.90
8593;DHT22;4334;49.982;8.398;2022-10-15T00:50:23;14.60;99.90
8593;DHT22;4334;49.982;8.398;2022-10-15T00:52:58;14.60;99.90
8593;DHT22;4334;49.982;8.398;2022-10-15T00:55:28;14.60;99.90
8593;DHT22;4334;49.982;8.398;2022-10-15T00:57:58;14.60;99.90
8593;DHT22;4334;49.982;8.398;2022-10-15T01:00:26;14.60;99.90
8593;DHT22;4334;49.982;8.398;2022-10-15T01:02:54;14.60;99.90
8593;DHT22;4334;49.982;8.398;2022-10-15T01:05:21;14.60;99.90
8593;DHT22;4334;49.982;8.398;2022-10-15T01:07:48;14.60;99.90
8593;DHT22;4334;49.982;8.398;2022-10-15T01:10:16;14.60;99.90
8593;DHT22;4334;49.982;8.398;2022-10-15T01:12:57;14.60;99.90
8593;DHT22;4334;49.982;8.398;2022-10-15T01:15:28;14.60;99.90
8593;DHT22;4334;49.982;8.398;2022-10-15T01:18:02;14.60;99.90
8593;DHT22;4334;49.982;8.398;2022-10-15T01:20:51;14.60;99.90
8593;DHT22;4334;49.982;8.398;2022-10-15T01:23:37;14.60;99.90
8593;DHT22;4334;49.982;8.398;2022-10-15T01:26:24;14.60;99.90
8593;DHT22;4334;49.982;8.398;2022-10-15T01:29:13;14.60;99.90
8593;DHT22;4334;49.982;8.398;2022-10-15T01:31:51;14.70;99.90
8593;DHT22;4334;49.982;8.398;2022-10-15T01:34:25;14.60;99.90
8593;DHT22;4334;49.982;8.398;2022-10-15T01:36:57;14.70;99.90
8593;DHT22;4334;49.982;8.398;2022-10-15T01:39:31;14.70;99.90
8593;DHT22;4334;49.982;8.398;2022-10-15T01:42:00;14.60;99.90
8593;DHT22;4334;49.982;8.398;2022-10-15T01:44:31;14.60;99.90
8593;DHT22;4334;49.982;8.398;2022-10-15T01:47:03;18.10;99.90
8593;DHT22;4334;49.982;8.398;2022-10-15T01:49:33;14.60;99.90
8593;DHT22;4334;49.982;8.398;2022-10-15T01:52:05;14.60;99.90
8593;DHT22;4334;49.982;8.398;2022-10-15T01:54:33;14.60;99.90
8593;DHT22;4334;49.982;8.398;2022-10-15T01:57:01;14.60;99.90
8593;DHT22;4334;49.982;8.398;2022-10-15T01:59:30;14.70;99.90
8593;DHT22;4334;49.982;8.398;2022-10-15T02:01:59;14.60;99.90
8593;DHT22;4334;49.982;8.398;2022-10-15T02:04:27;18.10;99.90
8593;DHT22;4334;49.982;8.398;2022-10-15T02:06:59;14.70;99.90
8593;DHT22;4334;49.982;8.398;2022-10-15T02:09:33;14.60;99.90
8593;DHT22;4334;49.982;8.398;2022-10-15T02:12:09;14.70;99.90
8593;DHT22;4334;49.982;8.398;2022-10-15T02:14:45;14.60;99.90
8593;DHT22;4334;49.982;8.398;2022-10-15T02:17:16;14.60;99.90
8593;DHT22;4334;49.982;8.398;2022-10-15T02:19:49;17.50;99.90
8593;DHT22;4334;49.982;8.398;2022-10-15T02:22:20;14.60;99.90
8593;DHT22;4334;49.982;8.398;2022-10-15T02:24:54;14.60;99.90
8593;DHT22;4334;49.982;8.398;2022-10-15T02:27:23;14.60;99.90
8593;DHT22;4334;49.982;8.398;2022-10-15T02:29:52;14.60;99.90
8593;DHT22;4334;49.982;8.398;2022-10-15T02:32:21;14.50;99.90
8593;DHT22;4334;49.982;8.398;2022-10-15T02:34:49;17.40;99.90
8593;DHT22;4334;49.982;8.398;2022-10-15T02:37:20;14.60;99.90
8593;DHT22;4334;49.982;8.398;2022-10-15T02:39:48;14.60;99.90
8593;DHT22;4334;49.982;8.398;2022-10-15T02:42:15;14.60;99.90
8593;DHT22;4334;49.982;8.398;2022-10-15T02:44:43;14.60;99.90
8593;DHT22;4334;49.982;8.398;2022-10-15T02:47:09;14.60;99.90
8593;DHT22;4334;49.982;8.398;2022-10-15T02:49:38;14.50;99.90
8593;DHT22;4334;49.982;8.398;2022-10-15T02:52:05;14.50;99.90
8593;DHT22;4334;49.982;8.398;2022-10-15T02:54:31;14.50;99.90
8593;DHT22;4334;49.982;8.398;2022-10-15T02:56:58;14.50;99.90
8593;DHT22;4334;49.982;8.398;2022-10-15T02:59:25;14.50;99.90
8593;DHT22;4334;49.982;8.398;2022-10-15T03:01:52;14.50;99.90
8593;DHT22;4334;49.982;8.398;2022-10-15T03:04:19;14.50;99.90
8593;DHT22;4334;49.982;8.398;2022-10-15T03:06:47;14.50;99.90
8593;DHT22;4334;49.982;8.398;2022-10-15T03:09:15;14.50;99.90
8593;DHT22;4334;49.982;8.398;2022-10-15T03:11:42;14.50;99.90
8593;DHT22;4334;49.982;8.398;2022-10-15T03:14:08;14.50;99.90
8593;DHT22;4334;49.982;8.398;2022-10-15T03:16:35;14.60;99.90
8593;DHT22;4334;49.982;8.398;2022-10-15T03:19:02;14.50;99.90
8593;DHT22;4334;49.982;8.398;2022-10-15T03:21:29;14.50;99.90
8593;DHT22;4334;49.982;8.398;2022-10-15T03:23:57;14.50;99.90
8593;DHT22;4334;49.982;8.398;2022-10-15T03:26:24;14.50;99.90
8593;DHT22;4334;49.982;8.398;2022-10-15T03:28:51;14.50;99.90
8593;DHT22;4334;49.982;8.398;2022-10-15T03:31:18;14.50;99.90
8593;DHT22;4334;49.982;8.398;2022-10-15T03:33:45;14.50;99.90
8593;DHT22;4334;49.982;8.398;2022-10-15T03:36:11;14.50;99.90
8593;DHT22;4334;49.982;8.398;2022-10-15T03:38:38;14.50;99.90
8593;DHT22;4334;49.982;8.398;2022-10-15T03:41:06;14.50;99.90
8593;DHT22;4334;49.982;8.398;2022-10-15T03:43:33;14.50;99.90
8593;DHT22;4334;49.982;8.398;2022-10-15T03:46:00;14.50;99.90
8593;DHT22;4334;49.982;8.398;2022-10-15T03:48:27;14.50;99.90
8593;DHT22;4334;49.982;8.398;2022-10-15T03:50:56;14.60;99.90
8593;DHT22;4334;49.982;8.398;2022-10-15T03:53:22;14.50;99.90
8593;DHT22;4334;49.982;8.398;2022-10-15T03:55:49;14.60;99.90
8593;DHT22;4334;49.982;8.398;2022-10-15T03:58:17;14.50;99.90
8593;DHT22;4334;49.982;8.398;2022-10-15T04:00:44;14.50;99.90
8593;DHT22;4334;49.982;8.398;2022-10-15T04:03:11;14.50;99.90
8593;DHT22;4334;49.982;8.398;2022-10-15T04:05:39;14.50;99.90
8593;DHT22;4334;49.982;8.398;2022-10-15T04:08:06;14.50;99.90
8593;DHT22;4334;49.982;8.398;2022-10-15T04:10:32;16.20;99.90
8593;DHT22;4334;49.982;8.398;2022-10-15T04:12:59;14.50;99.90
8593;DHT22;4334;49.982;8.398;2022-10-15T04:15:27;14.50;99.90
8593;DHT22;4334;49.982;8.398;2022-10-15T04:17:54;12.70;99.90
8593;DHT22;4334;49.982;8.398;2022-10-15T04:20:21;17.90;99.90
8593;DHT22;4334;49.982;8.398;2022-10-15T04:22:50;14.50;99.90
8593;DHT22;4334;49.982;8.398;2022-10-15T04:25:17;14.40;99.90
8593;DHT22;4334;49.982;8.398;2022-10-15T04:27:43;14.50;99.90
8593;DHT22;4334;49.982;8.398;2022-10-15T04:30:11;14.50;99.90
8593;DHT22;4334;49.982;8.398;2022-10-15T04:32:40;14.40;99.90
8593;DHT22;4334;49.982;8.398;2022-10-15T04:35:07;14.40;99.90
8593;DHT22;4334;49.982;8.398;2022-10-15T04:37:34;14.40;99.90
8593;DHT22;4334;49.982;8.398;2022-10-15T04:40:01;14.40;99.90
8593;DHT22;4334;49.982;8.398;2022-10-15T04:42:29;14.40;99.90
8593;DHT22;4334;49.982;8.398;2022-10-15T04:44:56;14.40;99.90
8593;DHT22;4334;49.982;8.398;2022-10-15T04:47:23;14.40;99.90
8593;DHT22;4334;49.982;8.398;2022-10-15T04:49:51;14.40;99.90
8593;DHT22;4334;49.982;8.398;2022-10-15T04:52:18;14.40;99.90
8593;DHT22;4334;49.982;8.398;2022-10-15T04:54:45;14.40;99.90
8593;DHT22;4334;49.982;8.398;2022-10-15T04:57:12;14.30;99.90
8593;DHT22;4334;49.982;8.398;2022-10-15T04:59:38;15.00;99.90
8593;DHT22;4334;49.982;8.398;2022-10-15T05:02:05;14.60;99.90
8593;DHT22;4334;49.982;8.398;2022-10-15T05:04:32;14.40;99.90
8593;DHT22;4334;49.982;8.398;2022-10-15T05:07:00;14.30;99.90
8593;DHT22;4334;49.982;8.398;2022-10-15T05:09:27;17.50;99.90
8593;DHT22;4334;49.982;8.398;2022-10-15T05:11:54;14.50;99.90
8593;DHT22;4334;49.982;8.398;2022-10-15T05:14:21;14.30;99.90
8593;DHT22;4334;49.982;8.398;2022-10-15T05:16:48;14.30;99.90
8593;DHT22;4334;49.982;8.398;2022-10-15T05:19:15;14.20;99.90
8593;DHT22;4334;49.982;8.398;2022-10-15T05:21:42;14.20;99.90
8593;DHT22;4334;49.982;8.398;2022-10-15T05:24:10;14.20;99.90
8593;DHT22;4334;49.982;8.398;2022-10-15T05:26:37;14.10;99.90
8593;DHT22;4334;49.982;8.398;2022-10-15T05:29:04;14.10;99.90
8593;DHT22;4334;49.982;8.398;2022-10-15T05:31:31;14.10;99.90
8593;DHT22;4334;49.982;8.398;2022-10-15T05:34:04;14.10;99.90
8593;DHT22;4334;49.982;8.398;2022-10-15T05:36:31;14.00;99.90
8593;DHT22;4334;49.982;8.398;2022-10-15T05:39:00;14.00;99.90
8593;DHT22;4334;49.982;8.398;2022-10-15T05:41:32;14.00;99.90
8593;DHT22;4334;49.982;8.398;2022-10-15T05:43:59;14.00;99.90
8593;DHT22;4334;49.982;8.398;2022-10-15T05:46:26;14.00;99.90
8593;DHT22;4334;49.982;8.398;2022-10-15T05:48:54;14.00;99.90
8593;DHT22;4334;49.982;8.398;2022-10-15T05:51:22;13.90;99.90
8593;DHT22;4334;49.982;8.398;2022-10-15T05:53:50;13.90;99.90
8593;DHT22;4334;49.982;8.398;2022-10-15T05:56:17;13.90;99.90
8593;DHT22;4334;49.982;8.398;2022-10-15T05:58:45;14.00;99.90
8593;DHT22;4334;49.982;8.398;2022-10-15T06:01:13;14.00;99.90
8593;DHT22;4334;49.982;8.398;2022-10-15T06:03:41;17.10;99.90
8593;DHT22;4334;49.982;8.398;2022-10-15T06:06:15;14.00;99.90
8593;DHT22;4334;49.982;8.398;2022-10-15T06:08:42;17.90;99.90
8593;DHT22;4334;49.982;8.398;2022-10-15T06:11:09;14.10;99.90
8593;DHT22;4334;49.982;8.398;2022-10-15T06:13:37;14.10;99.90
8593;DHT22;4334;49.982;8.398;2022-10-15T06:16:05;14.10;99.90
8593;DHT22;4334;49.982;8.398;2022-10-15T06:18:32;14.10;99.90
8593;DHT22;4334;49.982;8.398;2022-10-15T06:21:00;14.10;99.90
8593;DHT22;4334;49.982;8.398;2022-10-15T06:23:27;14.30;99.90
8593;DHT22;4334;49.982;8.398;2022-10-15T06:25:53;14.20;99.90
8593;DHT22;4334;49.982;8.398;2022-10-15T06:28:20;14.20;99.90
8593;DHT22;4334;49.982;8.398;2022-10-15T06:30:47;14.20;99.90
8593;DHT22;4334;49.982;8.398;2022-10-15T06:33:15;14.20;99.90
8593;DHT22;4334;49.982;8.398;2022-10-15T06:35:42;14.20;99.90
8593;DHT22;4334;49.982;8.398;2022-10-15T06:38:09;14.20;99.90
8593;DHT22;4334;49.982;8.398;2022-10-15T06:40:36;14.20;99.90
8593;DHT22;4334;49.982;8.398;2022-10-15T06:43:05;14.20;99.90
8593;DHT22;4334;49.982;8.398;2022-10-15T06:45:33;14.20;99.90
8593;DHT22;4334;49.982;8.398;2022-10-15T06:48:01;14.20;99.90
8593;DHT22;4334;49.982;8.398;2022-10-15T06:50:30;14.20;99.90
8593;DHT22;4334;49.982;8.398;2022-10-15T06:52:57;17.20;99.90
8593;DHT22;4334;49.982;8.398;2022-10-15T06:55:24;14.20;99.90
8593;DHT22;4334;49.982;8.398;2022-10-15T06:57:53;14.20;99.90
8593;DHT22;4334;49.982;8.398;2022-10-15T07:00:20;18.10;99.90
8593;DHT22;4334;49.982;8.398;2022-10-15T07:02:47;14.20;99.90
8593;DHT22;4334;49.982;8.398;2022-10-15T07:05:14;14.20;99.90
8593;DHT22;4334;49.982;8.398;2022-10-15T07:07:42;14.60;99.90
8593;DHT22;4334;49.982;8.398;2022-10-15T07:10:09;14.30;99.90
8593;DHT22;4334;49.982;8.398;2022-10-15T07:12:35;14.40;99.90
8593;DHT22;4334;49.982;8.398;2022-10-15T07:15:03;14.40;99.90
8593;DHT22;4334;49.982;8.398;2022-10-15T07:17:31;14.50;99.90
8593;DHT22;4334;49.982;8.398;2022-10-15T07:19:59;14.50;99.90
8593;DHT22;4334;49.982;8.398;2022-10-15T07:22:26;14.50;99.90
8593;DHT22;4334;49.982;8.398;2022-10-15T07:24:54;14.60;99.90
8593;DHT22;4334;49.982;8.398;2022-10-15T07:27:21;14.60;99.90
8593;DHT22;4334;49.982;8.398;2022-10-15T07:29:48;14.60;99.90
8593;DHT22;4334;49.982;8.398;2022-10-15T07:32:14;14.70;99.90
8593;DHT22;4334;49.982;8.398;2022-10-15T07:34:41;15.30;99.90
8593;DHT22;4334;49.982;8.398;2022-10-15T07:37:08;14.80;99.90
8593;DHT22;4334;49.982;8.398;2022-10-15T07:39:35;14.80;99.90
8593;DHT22;4334;49.982;8.398;2022-10-15T07:42:04;14.80;99.90
8593;DHT22;4334;49.982;8.398;2022-10-15T07:44:30;14.90;99.90
8593;DHT22;4334;49.982;8.398;2022-10-15T07:46:57;14.90;99.90
8593;DHT22;4334;49.982;8.398;2022-10-15T07:49:24;14.90;99.90
8593;DHT22;4334;49.982;8.398;2022-10-15T07:51:51;15.00;99.90
8593;DHT22;4334;49.982;8.398;2022-10-15T07:54:17;15.00;99.90
8593;DHT22;4334;49.982;8.398;2022-10-15T07:56:44;15.20;99.90
8593;DHT22;4334;49.982;8.398;2022-10-15T07:59:12;15.30;99.90
8593;DHT22;4334;49.982;8.398;2022-10-15T08:01:39;15.40;99.90
8593;DHT22;4334;49.982;8.398;2022-10-15T08:04:06;15.50;99.90
8593;DHT22;4334;49.982;8.398;2022-10-15T08:06:33;15.60;99.90
8593;DHT22;4334;49.982;8.398;2022-10-15T08:09:00;15.60;99.90
8593;DHT22;4334;49.982;8.398;2022-10-15T08:11:26;15.60;99.90
8593;DHT22;4334;49.982;8.398;2022-10-15T08:13:53;15.70;99.90
8593;DHT22;4334;49.982;8.398;2022-10-15T08:16:21;15.80;99.90
8593;DHT22;4334;49.982;8.398;2022-10-15T08:18:48;15.80;99.90
8593;DHT22;4334;49.982;8.398;2022-10-15T08:21:15;15.90;99.90
8593;DHT22;4334;49.982;8.398;2022-10-15T08:23:42;16.00;99.90
8593;DHT22;4334;49.982;8.398;2022-10-15T08:26:09;15.90;99.90
8593;DHT22;4334;49.982;8.398;2022-10-15T08:28:35;15.60;99.90
8593;DHT22;4334;49.982;8.398;2022-10-15T08:31:03;16.20;99.90
8593;DHT22;4334;49.982;8.398;2022-10-15T08:33:31;16.10;99.90
8593;DHT22;4334;49.982;8.398;2022-10-15T08:35:59;16.30;99.90
8593;DHT22;4334;49.982;8.398;2022-10-15T08:38:26;16.50;99.90
8593;DHT22;4334;49.982;8.398;2022-10-15T08:40:54;16.50;99.90
8593;DHT22;4334;49.982;8.398;2022-10-15T08:43:24;19.30;99.90
8593;DHT22;4334;49.982;8.398;2022-10-15T08:45:56;16.40;99.90
8593;DHT22;4334;49.982;8.398;2022-10-15T08:48:29;16.50;99.90
8593;DHT22;4334;49.982;8.398;2022-10-15T08:51:01;16.30;99.90
8593;DHT22;4334;49.982;8.398;2022-10-15T08:53:29;16.40;99.90
8593;DHT22;4334;49.982;8.398;2022-10-15T08:56:03;16.50;99.90
8593;DHT22;4334;49.982;8.398;2022-10-15T08:58:39;16.50;99.90
8593;DHT22;4334;49.982;8.398;2022-10-15T09:01:12;16.50;99.90
8593;DHT22;4334;49.982;8.398;2022-10-15T09:03:48;16.70;99.90
8593;DHT22;4334;49.982;8.398;2022-10-15T09:06:21;16.90;99.90
8593;DHT22;4334;49.982;8.398;2022-10-15T09:08:54;17.00;99.90
8593;DHT22;4334;49.982;8.398;2022-10-15T09:11:33;17.20;99.90
8593;DHT22;4334;49.982;8.398;2022-10-15T09:14:13;17.30;99.90
8593;DHT22;4334;49.982;8.398;2022-10-15T09:16:46;17.30;99.90
8593;DHT22;4334;49.982;8.398;2022-10-15T09:19:16;17.40;99.90
8593;DHT22;4334;49.982;8.398;2022-10-15T09:21:46;17.80;99.90
8593;DHT22;4334;49.982;8.398;2022-10-15T09:24:18;18.20;99.90
8593;DHT22;4334;49.982;8.398;2022-10-15T09:26:52;18.20;99.90
8593;DHT22;4334;49.982;8.398;2022-10-15T09:29:24;18.50;99.90
8593;DHT22;4334;49.982;8.398;2022-10-15T09:31:55;18.10;99.90
8593;DHT22;4334;49.982;8.398;2022-10-15T09:34:26;18.30;99.90
8593;DHT22;4334;49.982;8.398;2022-10-15T09:36:59;18.50;99.90
8593;DHT22;4334;49.982;8.398;2022-10-15T09:39:40;18.70;99.90
8593;DHT22;4334;49.982;8.398;2022-10-15T09:42:18;18.90;99.90
8593;DHT22;4334;49.982;8.398;2022-10-15T09:44:50;19.00;99.90
8593;DHT22;4334;49.982;8.398;2022-10-15T09:47:23;18.90;99.90
8593;DHT22;4334;49.982;8.398;2022-10-15T09:49:51;18.90;99.90
8593;DHT22;4334;49.982;8.398;2022-10-15T09:52:25;18.80;99.90
8593;DHT22;4334;49.982;8.398;2022-10-15T09:55:02;19.20;99.90
8593;DHT22;4334;49.982;8.398;2022-10-15T09:57:30;20.00;99.90
8593;DHT22;4334;49.982;8.398;2022-10-15T10:00:00;19.40;99.90
8593;DHT22;4334;49.982;8.398;2022-10-15T10:02:28;19.30;99.90
8593;DHT22;4334;49.982;8.398;2022-10-15T10:04:55;19.10;99.90
8593;DHT22;4334;49.982;8.398;2022-10-15T10:07:34;18.70;99.90
8593;DHT22;4334;49.982;8.398;2022-10-15T10:10:03;18.50;99.90
8593;DHT22;4334;49.982;8.398;2022-10-15T10:12:33;18.50;99.90
8593;DHT22;4334;49.982;8.398;2022-10-15T10:15:03;18.30;99.90
8593;DHT22;4334;49.982;8.398;2022-10-15T10:17:31;18.30;99.90
8593;DHT22;4334;49.982;8.398;2022-10-15T10:20:11;18.30;99.90
8593;DHT22;4334;49.982;8.398;2022-10-15T10:22:44;18.20;99.90
8593;DHT22;4334;49.982;8.398;2022-10-15T10:25:33;20.40;99.90
8593;DHT22;4334;49.982;8.398;2022-10-15T10:28:13;18.20;99.90
8593;DHT22;4334;49.982;8.398;2022-10-15T10:30:50;18.10;99.90
8593;DHT22;4334;49.982;8.398;2022-10-15T10:33:23;18.00;99.90
8593;DHT22;4334;49.982;8.398;2022-10-15T10:35:50;18.10;99.90
8593;DHT22;4334;49.982;8.398;2022-10-15T10:38:23;18.20;99.90
8593;DHT22;4334;49.982;8.398;2022-10-15T10:40:51;18.20;99.90
8593;DHT22;4334;49.982;8.398;2022-10-15T10:43:23;18.30;99.90
8593;DHT22;4334;49.982;8.398;2022-10-15T10:45:58;18.40;99.90
8593;DHT22;4334;49.982;8.398;2022-10-15T10:48:26;18.20;99.90
8593;DHT22;4334;49.982;8.398;2022-10-15T10:51:09;18.20;99.90
8593;DHT22;4334;49.982;8.398;2022-10-15T10:53:45;18.40;99.90
8593;DHT22;4334;49.982;8.398;2022-10-15T10:56:17;18.50;99.90
8593;DHT22;4334;49.982;8.398;2022-10-15T10:58:48;18.60;99.90
8593;DHT22;4334;49.982;8.398;2022-10-15T11:01:18;18.60;99.90
8593;DHT22;4334;49.982;8.398;2022-10-15T11:03:45;19.20;99.90
8593;DHT22;4334;49.982;8.398;2022-10-15T11:06:49;19.80;99.90
8593;DHT22;4334;49.982;8.398;2022-10-15T11:09:36;21.20;99.90
8593;DHT22;4334;49.982;8.398;2022-10-15T11:12:29;22.50;99.90
8593;DHT22;4334;49.982;8.398;2022-10-15T11:15:09;22.40;99.90
8593;DHT22;4334;49.982;8.398;2022-10-15T11:17:48;23.30;99.90
8593;DHT22;4334;49.982;8.398;2022-10-15T11:20:22;22.20;99.90
8593;DHT22;4334;49.982;8.398;2022-10-15T11:23:00;20.90;99.90
8593;DHT22;4334;49.982;8.398;2022-10-15T11:25:38;19.90;99.90
8593;DHT22;4334;49.982;8.398;2022-10-15T11:28:18;19.20;99.90
8593;DHT22;4334;49.982;8.398;2022-10-15T11:30:53;19.00;99.90
8593;DHT22;4334;49.982;8.398;2022-10-15T11:33:37;18.80;99.90
8593;DHT22;4334;49.982;8.398;2022-10-15T11:36:21;18.60;99.90
8593;DHT22;4334;49.982;8.398;2022-10-15T11:38:55;18.60;99.90
8593;DHT22;4334;49.982;8.398;2022-10-15T11:41:35;18.60;99.90
8593;DHT22;4334;49.982;8.398;2022-10-15T11:44:19;18.50;99.90
8593;DHT22;4334;49.982;8.398;2022-10-15T11:46:56;18.50;99.90
8593;DHT22;4334;49.982;8.398;2022-10-15T11:49:37;19.90;99.90
8593;DHT22;4334;49.982;8.398;2022-10-15T11:52:18;18.30;99.90
8593;DHT22;4334;49.982;8.398;2022-10-15T11:54:59;19.50;99.90
8593;DHT22;4334;49.982;8.398;2022-10-15T11:57:30;18.30;99.90
8593;DHT22;4334;49.982;8.398;2022-10-15T12:00:02;18.20;99.90
8593;DHT22;4334;49.982;8.398;2022-10-15T12:02:32;18.30;99.90
8593;DHT22;4334;49.982;8.398;2022-10-15T12:05:04;18.30;99.90
8593;DHT22;4334;49.982;8.398;2022-10-15T12:07:36;20.90;99.90
8593;DHT22;4334;49.982;8.398;2022-10-15T12:10:13;18.50;99.90
8593;DHT22;4334;49.982;8.398;2022-10-15T12:12:48;18.50;99.90
8593;DHT22;4334;49.982;8.398;2022-10-15T12:15:25;18.60;99.90
8593;DHT22;4334;49.982;8.398;2022-10-15T12:17:59;18.80;99.90
8593;DHT22;4334;49.982;8.398;2022-10-15T12:20:27;19.00;99.90
8593;DHT22;4334;49.982;8.398;2022-10-15T12:22:57;19.00;99.90
8593;DHT22;4334;49.982;8.398;2022-10-15T12:25:41;18.90;99.90
8593;DHT22;4334;49.982;8.398;2022-10-15T12:28:15;18.90;99.90
8593;DHT22;4334;49.982;8.398;2022-10-15T12:31:01;19.00;99.90
8593;DHT22;4334;49.982;8.398;2022-10-15T12:33:33;19.20;99.90
8593;DHT22;4334;49.982;8.398;2022-10-15T12:36:02;19.30;99.90
8593;DHT22;4334;49.982;8.398;2022-10-15T12:38:36;19.10;99.90
8593;DHT22;4334;49.982;8.398;2022-10-15T12:41:06;19.10;99.90
8593;DHT22;4334;49.982;8.398;2022-10-15T12:43:37;18.80;99.90
8593;DHT22;4334;49.982;8.398;2022-10-15T12:46:07;18.90;99.90
8593;DHT22;4334;49.982;8.398;2022-10-15T12:48:37;19.70;99.90
8593;DHT22;4334;49.982;8.398;2022-10-15T12:51:28;19.10;99.90
8593;DHT22;4334;49.982;8.398;2022-10-15T12:53:55;19.30;99.90
8593;DHT22;4334;49.982;8.398;2022-10-15T12:56:35;19.20;99.90
8593;DHT22;4334;49.982;8.398;2022-10-15T12:59:03;19.40;99.90
8593;DHT22;4334;49.982;8.398;2022-10-15T13:01:49;19.50;99.90
8593;DHT22;4334;49.982;8.398;2022-10-15T13:04:17;19.60;99.90
8593;DHT22;4334;49.982;8.398;2022-10-15T13:06:44;19.60;99.90
8593;DHT22;4334;49.982;8.398;2022-10-15T13:09:26;19.80;99.90
8593;DHT22;4334;49.982;8.398;2022-10-15T13:11:56;19.70;99.90
8593;DHT22;4334;49.982;8.398;2022-10-15T13:14:37;19.50;99.90
8593;DHT22;4334;49.982;8.398;2022-10-15T13:17:14;19.40;99.90
8593;DHT22;4334;49.982;8.398;2022-10-15T13:19:47;19.50;99.90
8593;DHT22;4334;49.982;8.398;2022-10-15T13:22:22;19.60;99.90
8593;DHT22;4334;49.982;8.398;2022-10-15T13:24:49;19.70;99.90
8593;DHT22;4334;49.982;8.398;2022-10-15T13:27:21;19.70;99.90
8593;DHT22;4334;49.982;8.398;2022-10-15T13:30:00;19.50;99.90
8593;DHT22;4334;49.982;8.398;2022-10-15T13:32:30;19.40;99.90
8593;DHT22;4334;49.982;8.398;2022-10-15T13:34:57;19.20;99.90
8593;DHT22;4334;49.982;8.398;2022-10-15T13:37:30;19.10;99.90
8593;DHT22;4334;49.982;8.398;2022-10-15T13:39:58;19.00;99.90
8593;DHT22;4334;49.982;8.398;2022-10-15T13:42:25;19.10;99.90
8593;DHT22;4334;49.982;8.398;2022-10-15T13:44:59;19.00;99.90
8593;DHT22;4334;49.982;8.398;2022-10-15T13:47:30;19.00;99.90
8593;DHT22;4334;49.982;8.398;2022-10-15T13:50:11;18.90;99.90
8593;DHT22;4334;49.982;8.398;2022-10-15T13:52:39;18.90;99.90
8593;DHT22;4334;49.982;8.398;2022-10-15T13:55:21;18.80;99.90
8593;DHT22;4334;49.982;8.398;2022-10-15T13:57:51;18.80;99.90
8593;DHT22;4334;49.982;8.398;2022-10-15T14:00:25;18.80;99.90
8593;DHT22;4334;49.982;8.398;2022-10-15T14:03:12;18.80;99.90
8593;DHT22;4334;49.982;8.398;2022-10-15T14:05:40;18.80;99.90
8593;DHT22;4334;49.982;8.398;2022-10-15T14:08:14;18.90;99.90
8593;DHT22;4334;49.982;8.398;2022-10-15T14:10:42;18.90;99.90
8593;DHT22;4334;49.982;8.398;2022-10-15T14:13:09;19.00;99.90
8593;DHT22;4334;49.982;8.398;2022-10-15T14:15:44;18.90;99.90
8593;DHT22;4334;49.982;8.398;2022-10-15T14:18:14;19.00;99.90
8593;DHT22;4334;49.982;8.398;2022-10-15T14:20:44;19.20;99.90
8593;DHT22;4334;49.982;8.398;2022-10-15T14:23:16;19.40;99.90
8593;DHT22;4334;49.982;8.398;2022-10-15T14:25:51;19.60;99.90
8593;DHT22;4334;49.982;8.398;2022-10-15T14:28:20;19.80;99.90
8593;DHT22;4334;49.982;8.398;2022-10-15T14:30:50;19.70;99.90
8593;DHT22;4334;49.982;8.398;2022-10-15T14:33:40;19.70;99.90
8593;DHT22;4334;49.982;8.398;2022-10-15T14:38:54;20.80;99.90
8593;DHT22;4334;49.982;8.398;2022-10-15T14:41:27;21.30;99.90
8593;DHT22;4334;49.982;8.398;2022-10-15T14:44:03;21.80;99.90
8593;DHT22;4334;49.982;8.398;2022-10-15T14:46:37;21.70;99.90
8593;DHT22;4334;49.982;8.398;2022-10-15T14:49:18;21.70;99.90
8593;DHT22;4334;49.982;8.398;2022-10-15T14:51:54;21.80;99.90
8593;DHT22;4334;49.982;8.398;2022-10-15T14:54:26;21.90;99.90
8593;DHT22;4334;49.982;8.398;2022-10-15T14:56:56;21.80;99.90
8593;DHT22;4334;49.982;8.398;2022-10-15T14:59:29;21.30;99.90
8593;DHT22;4334;49.982;8.398;2022-10-15T15:02:00;21.30;99.90
8593;DHT22;4334;49.982;8.398;2022-10-15T15:04:36;21.10;99.90
8593;DHT22;4334;49.982;8.398;2022-10-15T15:07:15;20.30;99.90
8593;DHT22;4334;49.982;8.398;2022-10-15T15:09:45;19.70;99.90
8593;DHT22;4334;49.982;8.398;2022-10-15T15:12:18;19.30;99.90
8593;DHT22;4334;49.982;8.398;2022-10-15T15:14:46;19.10;99.90
8593;DHT22;4334;49.982;8.398;2022-10-15T15:17:17;18.90;99.90
8593;DHT22;4334;49.982;8.398;2022-10-15T15:19:44;18.80;99.90
8593;DHT22;4334;49.982;8.398;2022-10-15T15:22:14;18.80;99.90
8593;DHT22;4334;49.982;8.398;2022-10-15T15:24:41;18.70;99.90
8593;DHT22;4334;49.982;8.398;2022-10-15T15:27:20;18.70;99.90
8593;DHT22;4334;49.982;8.398;2022-10-15T15:29:48;18.60;99.90
8593;DHT22;4334;49.982;8.398;2022-10-15T15:32:16;18.50;99.90
8593;DHT22;4334;49.982;8.398;2022-10-15T15:34:43;18.60;99.90
8593;DHT22;4334;49.982;8.398;2022-10-15T15:37:14;18.50;99.90
8593;DHT22;4334;49.982;8.398;2022-10-15T15:39:41;18.40;99.90
8593;DHT22;4334;49.982;8.398;2022-10-15T15:42:11;18.30;99.90
8593;DHT22;4334;49.982;8.398;2022-10-15T15:44:38;18.30;99.90
8593;DHT22;4334;49.982;8.398;2022-10-15T15:47:05;22.30;99.90
8593;DHT22;4334;49.982;8.398;2022-10-15T15:49:34;18.20;99.90
8593;DHT22;4334;49.982;8.398;2022-10-15T15:52:01;18.10;99.90
8593;DHT22;4334;49.982;8.398;2022-10-15T15:54:28;18.00;99.90
8593;DHT22;4334;49.982;8.398;2022-10-15T15:56:56;18.00;99.90
8593;DHT22;4334;49.982;8.398;2022-10-15T15:59:23;17.90;99.90
8593;DHT22;4334;49.982;8.398;2022-10-15T16:01:50;17.80;99.90
8593;DHT22;4334;49.982;8.398;2022-10-15T16:04:16;17.80;99.90
8593;DHT22;4334;49.982;8.398;2022-10-15T16:06:44;17.70;99.90
8593;DHT22;4334;49.982;8.398;2022-10-15T16:09:13;17.70;99.90
8593;DHT22;4334;49.982;8.398;2022-10-15T16:11:40;17.60;99.90
8593;DHT22;4334;49.982;8.398;2022-10-15T16:14:07;17.70;99.90
8593;DHT22;4334;49.982;8.398;2022-10-15T16:16:34;17.50;99.90
8593;DHT22;4334;49.982;8.398;2022-10-15T16:19:01;17.50;99.90
8593;DHT22;4334;49.982;8.398;2022-10-15T16:21:28;17.40;99.90
8593;DHT22;4334;49.982;8.398;2022-10-15T16:23:56;17.30;99.90
8593;DHT22;4334;49.982;8.398;2022-10-15T16:26:23;17.30;99.90